KORD/ORD METAR and TAF weather

Enter ICAO airport designator
Station Type Date Time Source
KORD METAR 2022/06/26 07:51 UTC NOAA

KORD 260751Z 32006KT 10SM FEW015 BKN150 22/19 A2995 RMK AO2 SLP138 T02170194 $


Station Type Date Time Source
KORD Decoded METAR 2022/06/26 07:51 UTC NOAA

CHICAGO O'HARE INTERNATIONAL, IL, United States (KORD) 41-59N 087-55W 200M
Jun 26, 2022 - 03:51 AM EDT / 2022.06.26 0751 UTC
Wind: from the NW (320 degrees) at 7 MPH (6 KT):0
Visibility: 10 mile(s):0
Sky conditions: mostly cloudy
Temperature: 71.1 F (21.7 C)
Dew Point: 66.9 F (19.4 C)
Relative Humidity: 86%
Pressure (altimeter): 29.95 in. Hg (1014 hPa)
ob: KORD 260751Z 32006KT 10SM FEW015 BKN150 22/19 A2995 RMK AO2 SLP138 T02170194
cycle: 8

Station Type Date Time Source
KORD TAF 2022/06/26 06:33 UTC NOAA

TAF KORD 260530Z 2606/2712 28007KT P6SM SCT015 BKN025
TEMPO 2607/2610 6SM BR BKN015
FM261100 31011KT P6SM BKN035
FM261300 31014G24KT P6SM FEW030 SCT250
FM261900 30017G27KT P6SM SCT250
FM270100 29009KT P6SM FEW250

Example: see airport list